Time;durP1;ratioP1;P1;durP2;ratioP2;P2;SDS_P1;SDS_P2;PMS_P1;PMS_P2;Temp;Humidity;BMP_temperature;BMP_pressure;BME280_temperature;BME280_humidity;BME280_pressure;Samples;Min_cycle;Max_cycle;Signal;HPM_P1;HPM_P2
2023/01/05 00:00:53;;;;;;;40.50;4.17;;;;;;;9.17;100.00;101600.69;6181761;23;20244;-87
2023/01/05 00:03:18;;;;;;;36.78;3.90;;;;;;;9.02;100.00;101570.91;6182191;23;20005;-86
2023/01/05 00:05:44;;;;;;;30.83;3.53;;;;;;;9.03;100.00;101576.03;6180939;23;20071;-86
2023/01/05 00:08:09;;;;;;;26.93;3.23;;;;;;;9.16;100.00;101588.34;6155497;23;20063;-86
2023/01/05 00:24:28;;;;;;;27.05;3.95;;;;;;;8.85;100.00;101579.56;6185582;23;20040;-87
2023/01/05 00:26:54;;;;;;;27.05;3.38;;;;;;;8.82;100.00;101585.38;6186554;23;20013;-87
2023/01/05 00:29:19;;;;;;;31.37;4.50;;;;;;;8.82;100.00;101598.72;6180482;23;20005;-87
2023/01/05 00:31:45;;;;;;;32.50;4.70;;;;;;;8.75;100.00;101595.34;6155295;23;20644;-87
2023/01/05 00:34:10;;;;;;;30.38;3.92;;;;;;;8.70;100.00;101597.88;6183694;23;19997;-87
2023/01/05 00:36:35;;;;;;;33.00;3.77;;;;;;;8.70;100.00;101596.00;6183438;23;20008;-86
2023/01/05 00:39:01;;;;;;;33.77;3.10;;;;;;;8.63;100.00;101592.63;6182324;23;20005;-87
2023/01/05 00:41:26;;;;;;;25.27;3.27;;;;;;;8.41;100.00;101565.53;6183794;23;20016;-86
2023/01/05 00:43:51;;;;;;;31.80;4.03;;;;;;;8.36;100.00;101565.41;6184330;23;20376;-86
2023/01/05 00:46:17;;;;;;;27.20;3.35;;;;;;;8.22;100.00;101557.53;6184003;23;20001;-87
2023/01/05 00:48:42;;;;;;;35.20;4.17;;;;;;;8.22;100.00;101570.88;6181594;23;20008;-86
2023/01/05 00:51:07;;;;;;;27.40;3.40;;;;;;;8.18;100.00;101567.84;6183050;23;20029;-86
2023/01/05 00:53:33;;;;;;;30.80;3.17;;;;;;;8.32;100.00;101599.72;6182918;23;20376;-86
2023/01/05 00:55:58;;;;;;;32.77;3.60;;;;;;;8.13;100.00;101569.56;6183695;23;20334;-86
2023/01/05 00:58:24;;;;;;;27.35;3.05;;;;;;;8.22;100.00;101602.91;6182842;23;20349;-86
2023/01/05 01:00:49;;;;;;;37.67;3.73;;;;;;;8.04;100.00;101583.19;6183534;23;20008;-86
2023/01/05 01:03:15;;;;;;;26.30;3.90;;;;;;;8.08;100.00;101598.78;6182906;23;20406;-87
2023/01/05 01:05:40;;;;;;;37.13;4.10;;;;;;;8.00;100.00;101597.22;6183671;23;20084;-86
2023/01/05 01:08:05;;;;;;;36.63;3.80;;;;;;;7.98;100.00;101602.78;6183057;23;20004;-86
2023/01/05 01:10:31;;;;;;;40.13;4.47;;;;;;;7.99;100.00;101606.25;6183193;23;20376;-86
2023/01/05 01:12:56;;;;;;;31.17;3.77;;;;;;;7.99;100.00;101611.59;6183135;23;20005;-86
2023/01/05 01:15:22;;;;;;;38.75;3.92;;;;;;;7.89;100.00;101601.44;6188333;23;20012;-87
2023/01/05 01:17:47;;;;;;;35.83;3.33;;;;;;;7.88;100.00;101603.28;6186537;23;20035;-86
2023/01/05 01:20:12;;;;;;;27.37;4.20;;;;;;;7.79;100.00;101591.25;6184913;23;20503;-86
2023/01/05 01:22:38;;;;;;;33.90;3.73;;;;;;;7.84;100.00;101595.97;6160357;23;20037;-86
2023/01/05 01:25:05;;;;;;;35.60;3.60;;;;;;;7.68;100.00;101590.13;6182545;23;20005;-86
2023/01/05 01:27:30;;;;;;;33.92;3.60;;;;;;;7.79;100.00;101601.94;6181806;23;20472;-87
2023/01/05 01:29:56;;;;;;;35.53;3.87;;;;;;;7.72;100.00;101596.66;6184146;23;20040;-86
2023/01/05 01:32:23;;;;;;;25.33;3.45;;;;;;;7.66;100.00;101594.88;6183036;23;20023;-86
2023/01/05 01:34:48;;;;;;;36.47;4.07;;;;;;;7.78;100.00;101626.19;6156859;23;20016;-86
2023/01/05 01:37:15;;;;;;;31.13;3.43;;;;;;;7.47;100.00;101583.34;6182067;23;20339;-86
2023/01/05 01:39:40;;;;;;;31.80;3.80;;;;;;;7.51;100.00;101599.72;6183314;23;20013;-86
2023/01/05 01:42:12;;;;;;;34.20;3.33;;;;;;;7.45;100.00;101598.75;6157232;23;20020;-87
2023/01/05 01:45:04;;;;;;;36.55;3.70;;;;;;;7.65;100.00;101640.44;6182367;23;20005;-83
2023/01/05 01:47:56;;;;;;;37.25;3.60;;;;;;;7.65;100.00;101627.94;6181182;23;20033;-86
2023/01/05 01:50:28;;;;;;;44.10;4.43;;;;;;;7.57;100.00;101620.19;6182027;23;20088;-86
2023/01/05 01:53:00;;;;;;;39.23;4.33;;;;;;;7.70;100.00;101636.06;6183794;23;20024;-86
2023/01/05 01:55:28;;;;;;;27.47;3.23;;;;;;;7.66;100.00;101642.91;6153155;23;20241;-86
2023/01/05 01:57:54;;;;;;;33.70;2.85;;;;;;;7.69;100.00;101645.13;6152696;23;20033;-86
2023/01/05 02:00:20;;;;;;;22.00;3.45;;;;;;;7.74;100.00;101641.81;6153662;23;20009;-86
2023/01/05 02:02:47;;;;;;;40.60;4.75;;;;;;;7.71;100.00;101628.91;6151904;23;20028;-87
2023/01/05 02:05:15;;;;;;;34.27;3.63;;;;;;;7.78;100.00;101631.50;6153971;23;20005;-86
2023/01/05 02:07:46;;;;;;;34.07;3.57;;;;;;;7.94;100.00;101649.63;6152864;23;20269;-86
2023/01/05 02:10:15;;;;;;;38.88;4.07;;;;;;;7.97;100.00;101651.03;6154063;23;20421;-86
2023/01/05 02:13:34;;;;;;;34.15;3.47;;;;;;;8.09;100.00;101664.47;6157522;23;20589;-85
2023/01/05 02:16:20;;;;;;;36.13;4.38;;;;;;;8.14;100.00;101657.44;6069377;23;20014;-86
2023/01/05 02:18:48;;;;;;;38.28;4.30;;;;;;;8.21;100.00;101661.91;6130964;23;20032;-86
2023/01/05 02:21:27;;;;;;;30.55;3.67;;;;;;;8.23;100.00;101663.28;6153381;23;20009;-86
2023/01/05 02:24:41;;;;;;;34.30;4.43;;;;;;;8.28;100.00;101671.47;6153480;23;20002;-86
2023/01/05 02:27:25;;;;;;;33.07;3.53;;;;;;;8.32;100.00;101670.00;6152622;23;20256;-86
2023/01/05 02:30:15;;;;;;;33.45;4.35;;;;;;;8.34;100.00;101678.59;6152609;23;20009;-86
2023/01/05 02:33:53;;;;;;;32.28;3.75;;;;;;;8.41;100.00;101661.66;6152835;23;20001;-86
2023/01/05 02:40:16;;;;;;;27.70;3.78;;;;;;;8.53;100.00;101673.28;6141169;23;20504;-86
2023/01/05 02:42:44;;;;;;;30.13;3.47;;;;;;;8.50;100.00;101668.41;6152642;23;20080;-86
2023/01/05 02:45:10;;;;;;;36.23;4.73;;;;;;;8.59;100.00;101676.94;6152336;23;20009;-86
2023/01/05 02:47:44;;;;;;;26.95;3.22;;;;;;;8.55;100.00;101662.38;6152954;23;20001;-86
2023/01/05 02:50:09;;;;;;;36.88;4.25;;;;;;;8.61;100.00;101672.19;6151810;23;20044;-86
2023/01/05 02:52:42;;;;;;;36.27;3.70;;;;;;;8.50;100.00;101649.69;6152438;23;20005;-87
2023/01/05 02:55:12;;;;;;;32.70;3.50;;;;;;;8.47;100.00;101639.44;6179260;23;20013;-86
2023/01/05 02:57:49;;;;;;;33.67;3.77;;;;;;;8.67;100.00;101675.81;6181829;23;20001;-86
2023/01/05 03:00:38;;;;;;;30.60;3.20;;;;;;;8.56;100.00;101651.47;6182249;23;20228;-86
2023/01/05 03:03:14;;;;;;;32.25;3.78;;;;;;;8.74;100.00;101680.03;6182357;23;20440;-86
2023/01/05 03:05:52;;;;;;;29.60;3.45;;;;;;;8.77;100.00;101671.56;6185415;23;20043;-85
2023/01/05 03:08:22;;;;;;;29.80;3.90;;;;;;;8.77;100.00;101668.06;6184569;23;20511;-86
2023/01/05 03:14:00;;;;;;;38.72;4.25;;;;;;;8.75;100.00;101667.50;6205485;23;20024;-86
2023/01/05 03:16:29;;;;;;;35.87;3.73;;;;;;;8.52;100.00;101649.47;6184854;23;20005;-86
2023/01/05 03:35:38;;;;;;;39.13;3.50;;;;;;;8.59;100.00;101690.28;6183346;23;20314;-85
2023/01/05 03:38:03;;;;;;;34.58;3.42;;;;;;;8.60;100.00;101686.56;6182183;23;20009;-85
2023/01/05 03:40:32;;;;;;;28.23;3.43;;;;;;;8.57;100.00;101679.84;6156953;23;20048;-85
2023/01/05 03:42:58;;;;;;;37.30;4.22;;;;;;;8.54;100.00;101669.59;6183055;23;20031;-85
2023/01/05 03:45:30;;;;;;;32.33;4.00;;;;;;;8.63;100.00;101678.13;6184696;23;20005;-85
2023/01/05 03:47:56;;;;;;;32.30;3.40;;;;;;;8.57;100.00;101665.66;6184411;23;20008;-86
2023/01/05 03:50:21;;;;;;;32.33;3.93;;;;;;;8.60;100.00;101665.19;6184878;23;20005;-86
2023/01/05 03:52:46;;;;;;;33.93;3.63;;;;;;;8.66;100.00;101668.81;6184202;23;20025;-85
2023/01/05 03:55:12;;;;;;;30.35;3.38;;;;;;;8.73;100.00;101674.91;6184163;23;20024;-85
2023/01/05 03:57:37;;;;;;;33.57;3.70;;;;;;;8.62;100.00;101653.25;6179536;23;20351;-85
2023/01/05 04:00:04;;;;;;;27.07;3.37;;;;;;;8.79;100.00;101674.00;6182343;23;20302;-85
2023/01/05 04:02:29;;;;;;;40.85;4.07;;;;;;;8.74;100.00;101660.53;6182405;23;20013;-85
2023/01/05 04:04:54;;;;;;;32.00;3.43;;;;;;;8.85;100.00;101686.47;6182719;23;20328;-85
2023/01/05 04:07:20;;;;;;;36.47;3.97;;;;;;;8.72;100.00;101667.94;6181719;23;20005;-85
2023/01/05 04:09:45;;;;;;;32.80;3.73;;;;;;;8.87;100.00;101671.03;6182580;23;20016;-85
2023/01/05 04:12:10;;;;;;;35.03;3.70;;;;;;;8.96;100.00;101686.75;6182556;23;20001;-85
2023/01/05 04:14:36;;;;;;;27.77;3.23;;;;;;;8.99;100.00;101689.81;6181895;23;20044;-85
2023/01/05 04:17:01;;;;;;;33.63;4.10;;;;;;;9.00;100.00;101678.06;6182408;23;20244;-86
2023/01/05 04:19:27;;;;;;;32.27;4.63;;;;;;;8.99;100.00;101688.97;6178473;23;20425;-85
2023/01/05 04:21:52;;;;;;;32.73;3.77;;;;;;;8.97;100.00;101685.69;6155149;23;20015;-85
2023/01/05 04:24:23;;;;;;;33.50;3.80;;;;;;;8.99;100.00;101694.31;6181637;23;20001;-85
2023/01/05 04:26:48;;;;;;;39.28;4.00;;;;;;;8.78;100.00;101664.34;6155651;23;20340;-85
2023/01/05 04:29:13;;;;;;;38.20;3.47;;;;;;;8.82;100.00;101672.75;6181646;23;20072;-85
2023/01/05 04:31:48;;;;;;;30.38;3.30;;;;;;;8.74;100.00;101653.31;6180715;23;20005;-85
2023/01/05 04:34:16;;;;;;;37.67;3.77;;;;;;;9.02;100.00;101700.06;6182142;23;20314;-85
2023/01/05 04:36:42;;;;;;;27.77;3.95;;;;;;;8.83;100.00;101661.81;6182212;23;20329;-85
2023/01/05 04:39:07;;;;;;;33.47;4.33;;;;;;;8.96;100.00;101673.38;6180726;23;20020;-85
2023/01/05 04:41:32;;;;;;;36.50;3.90;;;;;;;9.02;100.00;101694.69;6180754;23;20005;-85
2023/01/05 04:43:58;;;;;;;30.10;3.40;;;;;;;9.06;100.00;101700.41;6155141;23;20002;-86
2023/01/05 04:46:23;;;;;;;33.70;4.03;;;;;;;9.06;100.00;101701.22;6181586;23;20019;-85
2023/01/05 04:48:48;;;;;;;34.30;3.37;;;;;;;8.96;100.00;101673.38;6179866;23;20025;-85
2023/01/05 04:51:14;;;;;;;34.93;4.00;;;;;;;9.02;100.00;101705.41;6181827;23;20048;-86
2023/01/05 04:53:39;;;;;;;36.67;4.18;;;;;;;8.89;100.00;101681.50;6180721;23;20095;-88
2023/01/05 04:56:05;;;;;;;32.63;4.37;;;;;;;9.00;100.00;101691.44;6183064;23;20368;-88
2023/01/05 04:58:30;;;;;;;33.42;4.03;;;;;;;8.98;100.00;101687.34;6180656;23;20353;-88
2023/01/05 05:00:56;;;;;;;28.43;3.60;;;;;;;8.97;100.00;101678.50;6180853;23;20005;-88
2023/01/05 05:03:21;;;;;;;33.73;3.20;;;;;;;9.13;100.00;101708.34;6181527;23;20009;-87
2023/01/05 05:05:49;;;;;;;30.50;4.03;;;;;;;8.84;100.00;101660.00;6181753;23;20013;-88
2023/01/05 05:08:24;;;;;;;27.92;3.17;;;;;;;8.89;100.00;101671.63;6182887;23;20089;-87
2023/01/05 05:14:02;;;;;;;31.73;3.42;;;;;;;9.01;100.00;101694.91;6183108;22;20538;-88
2023/01/05 05:16:28;;;;;;;36.80;4.30;;;;;;;8.98;100.00;101692.69;6155284;23;20001;-88
2023/01/05 05:18:53;;;;;;;28.27;3.70;;;;;;;8.96;100.00;101703.63;6182287;23;20084;-88
2023/01/05 05:21:18;;;;;;;34.78;4.05;;;;;;;9.09;100.00;101724.81;6183379;23;20033;-87
2023/01/05 05:23:44;;;;;;;33.57;4.60;;;;;;;9.13;100.00;101727.84;6184182;23;20031;-87
2023/01/05 05:28:57;;;;;;;28.08;3.17;;;;;;;8.95;100.00;101688.63;6091448;23;20014;-87
2023/01/05 05:35:22;;;;;;;36.40;4.15;;;;;;;9.26;100.00;101731.41;6183771;23;20068;-87
2023/01/05 05:37:50;;;;;;;40.08;3.65;;;;;;;9.24;100.00;101737.81;6183540;23;20016;-87
2023/01/05 05:40:15;;;;;;;35.90;4.63;;;;;;;9.21;100.00;101746.28;6183138;23;20079;-87
2023/01/05 05:42:41;;;;;;;34.27;4.43;;;;;;;9.20;100.00;101741.16;6183580;23;20043;-87
2023/01/05 05:45:07;;;;;;;27.90;3.57;;;;;;;9.23;100.00;101748.72;6184187;23;20001;-86
2023/01/05 05:47:32;;;;;;;32.60;3.40;;;;;;;9.22;100.00;101744.44;6183659;23;20005;-88
2023/01/05 05:49:57;;;;;;;37.47;4.33;;;;;;;9.20;100.00;101743.84;6185122;23;20004;-86
2023/01/05 05:52:23;;;;;;;35.23;4.10;;;;;;;9.11;100.00;101731.81;6188391;23;19993;-87
2023/01/05 05:54:48;;;;;;;35.20;3.67;;;;;;;9.19;100.00;101752.91;6195962;23;20005;-86
2023/01/05 05:57:13;;;;;;;36.75;4.45;;;;;;;9.12;100.00;101753.00;6195677;23;20029;-86
2023/01/05 05:59:39;;;;;;;31.03;3.97;;;;;;;9.15;100.00;101752.50;6203999;23;20008;-86
2023/01/05 06:02:04;;;;;;;35.57;4.00;;;;;;;9.01;100.00;101737.69;6198351;23;20001;-86
2023/01/05 06:04:29;;;;;;;27.23;3.33;;;;;;;9.19;100.00;101766.28;6196973;23;20008;-87
2023/01/05 06:06:55;;;;;;;34.33;4.63;;;;;;;9.17;100.00;101771.81;6201121;23;19989;-87
2023/01/05 06:09:20;;;;;;;33.80;4.47;;;;;;;9.08;100.00;101757.94;6201602;23;20323;-86
2023/01/05 06:11:45;;;;;;;32.83;4.00;;;;;;;9.04;100.00;101755.94;6189775;23;20001;-87
2023/01/05 06:14:11;;;;;;;27.60;4.97;;;;;;;9.00;100.00;101755.59;6184446;23;20005;-87
2023/01/05 06:16:36;;;;;;;34.60;5.00;;;;;;;9.02;100.00;101753.53;6183750;23;20004;-85
2023/01/05 06:19:02;;;;;;;41.17;4.88;;;;;;;8.92;100.00;101756.72;6183396;23;20005;-85
2023/01/05 06:21:27;;;;;;;36.17;4.07;;;;;;;8.92;100.00;101771.91;6183162;23;20008;-84
2023/01/05 06:23:53;;;;;;;28.50;4.17;;;;;;;8.86;100.00;101770.97;6183483;23;20001;-84
2023/01/05 06:26:18;;;;;;;37.65;3.72;;;;;;;8.92;100.00;101790.63;6156859;23;20013;-85
2023/01/05 06:28:44;;;;;;;38.63;4.70;;;;;;;8.97;100.00;101797.97;6180681;23;20059;-85
2023/01/05 06:31:09;;;;;;;36.77;4.07;;;;;;;9.00;100.00;101801.03;6183533;23;20016;-84
2023/01/05 06:33:34;;;;;;;40.50;4.22;;;;;;;9.01;100.00;101797.34;6181851;23;20085;-84
2023/01/05 06:36:00;;;;;;;38.70;4.23;;;;;;;9.01;100.00;101805.34;6183087;23;20008;-84
2023/01/05 06:38:26;;;;;;;44.90;4.63;;;;;;;9.02;100.00;101811.50;6182425;23;19997;-84
2023/01/05 06:40:53;;;;;;;36.90;4.43;;;;;;;8.96;100.00;101801.69;6182725;23;20009;-85
2023/01/05 06:43:19;;;;;;;39.10;4.65;;;;;;;8.97;100.00;101809.50;6182485;23;20429;-84
2023/01/05 06:45:44;;;;;;;31.27;3.70;;;;;;;8.90;100.00;101806.06;6182755;23;20011;-84
2023/01/05 06:48:09;;;;;;;47.53;5.30;;;;;;;8.93;100.00;101827.84;6182192;23;20013;-84
2023/01/05 06:50:35;;;;;;;39.57;4.37;;;;;;;8.89;100.00;101815.97;6181875;23;20029;-83
2023/01/05 06:53:00;;;;;;;41.00;4.60;;;;;;;8.90;100.00;101820.28;6183249;23;20271;-84
2023/01/05 06:55:25;;;;;;;39.53;5.40;;;;;;;8.92;100.00;101826.22;6157012;23;20080;-84
2023/01/05 06:57:51;;;;;;;34.67;4.30;;;;;;;9.00;100.00;101834.97;6181652;23;20024;-85
2023/01/05 07:00:16;;;;;;;41.70;4.73;;;;;;;8.96;100.00;101833.75;6182662;23;20005;-84
2023/01/05 07:02:42;;;;;;;40.38;4.47;;;;;;;9.03;100.00;101837.19;6183138;23;20005;-84
2023/01/05 07:05:08;;;;;;;42.15;4.57;;;;;;;9.02;100.00;101836.41;6182850;23;20084;-85
2023/01/05 07:07:33;;;;;;;42.87;4.80;;;;;;;9.05;100.00;101837.78;6182281;23;20005;-86
2023/01/05 07:09:59;;;;;;;40.03;4.82;;;;;;;9.04;100.00;101841.50;6182873;23;20532;-86
2023/01/05 07:22:40;;;;;;;47.70;5.10;;;;;;;8.62;100.00;101832.25;6178862;22;20401;-84
2023/01/05 07:25:07;;;;;;;48.05;4.88;;;;;;;8.60;100.00;101838.84;6164633;23;20015;-86
2023/01/05 07:27:34;;;;;;;48.55;4.85;;;;;;;8.53;100.00;101833.59;6187335;23;20008;-85
2023/01/05 07:29:59;;;;;;;46.93;5.00;;;;;;;8.58;100.00;101848.94;6184174;23;20084;-87
2023/01/05 07:32:25;;;;;;;47.17;4.65;;;;;;;8.43;100.00;101826.03;6184282;23;20005;-86
2023/01/05 07:34:51;;;;;;;54.00;5.83;;;;;;;8.55;100.00;101855.56;6182648;23;20005;-85
2023/01/05 07:37:16;;;;;;;37.63;4.80;;;;;;;8.49;100.00;101840.38;6180900;23;20638;-84
2023/01/05 07:39:44;;;;;;;46.97;5.43;;;;;;;8.46;100.00;101843.47;6182598;23;20442;-84
2023/01/05 07:42:09;;;;;;;45.40;4.82;;;;;;;8.52;100.00;101856.00;6183062;23;20005;-85
2023/01/05 07:44:34;;;;;;;42.87;5.37;;;;;;;8.54;100.00;101847.75;6182486;23;20019;-85
2023/01/05 07:47:00;;;;;;;49.27;4.90;;;;;;;8.39;100.00;101827.50;6182194;23;20037;-85
2023/01/05 07:49:27;;;;;;;40.13;4.55;;;;;;;8.59;100.00;101859.41;6182454;23;20024;-86
2023/01/05 07:51:52;;;;;;;37.78;5.00;;;;;;;8.62;100.00;101861.63;6182546;23;20005;-86
2023/01/05 07:54:17;;;;;;;47.37;4.67;;;;;;;8.47;100.00;101847.78;6183072;23;20068;-85
2023/01/05 07:56:46;;;;;;;45.13;4.60;;;;;;;8.49;100.00;101849.22;6181334;23;20504;-87
2023/01/05 07:59:11;;;;;;;43.47;4.50;;;;;;;8.66;100.00;101872.72;6181524;23;20025;-85
2023/01/05 08:01:37;;;;;;;41.77;5.17;;;;;;;8.60;100.00;101866.38;6182622;23;20067;-84
2023/01/05 08:04:02;;;;;;;40.63;5.13;;;;;;;8.58;100.00;101857.75;6182671;23;20005;-86
2023/01/05 08:06:27;;;;;;;43.80;5.20;;;;;;;8.77;100.00;101877.34;6181790;23;20005;-85
2023/01/05 08:08:55;;;;;;;51.80;5.33;;;;;;;8.78;100.00;101883.50;6181651;23;20259;-85
2023/01/05 08:11:20;;;;;;;51.15;5.55;;;;;;;8.83;100.00;101882.84;6183274;23;20039;-85
2023/01/05 08:13:59;;;;;;;44.77;5.23;;;;;;;8.87;100.00;101892.03;6182420;23;20005;-84
2023/01/05 08:16:32;;;;;;;45.33;4.47;;;;;;;8.89;100.00;101896.16;6183701;23;20051;-83
2023/01/05 08:18:59;;;;;;;36.78;4.35;;;;;;;8.79;100.00;101877.94;6184486;23;20012;-84
2023/01/05 08:21:24;;;;;;;37.75;4.68;;;;;;;8.89;100.00;101895.31;6185060;23;20016;-84
2023/01/05 08:23:51;;;;;;;35.50;5.43;;;;;;;8.98;100.00;101899.34;6184570;23;20009;-84
2023/01/05 08:26:19;;;;;;;39.95;4.63;;;;;;;8.94;100.00;101893.66;6191287;23;20021;-84
2023/01/05 08:28:48;;;;;;;43.80;4.80;;;;;;;8.94;100.00;101888.31;6183250;23;20036;-84
2023/01/05 08:31:17;;;;;;;45.67;5.17;;;;;;;9.03;100.00;101896.00;6185809;23;20005;-84
2023/01/05 08:33:43;;;;;;;40.47;5.57;;;;;;;9.04;100.00;101905.69;6182527;23;20696;-85
2023/01/05 08:36:12;;;;;;;38.25;4.55;;;;;;;9.02;100.00;101903.22;6182558;23;20009;-84
2023/01/05 08:38:37;;;;;;;49.95;5.97;;;;;;;9.11;100.00;101910.94;6182858;23;20001;-85
2023/01/05 08:41:03;;;;;;;50.30;5.10;;;;;;;9.12;100.00;101905.41;6182048;23;20009;-86
2023/01/05 08:43:28;;;;;;;40.90;4.47;;;;;;;9.15;100.00;101914.81;6182027;23;20084;-85
2023/01/05 08:45:54;;;;;;;35.87;3.97;;;;;;;9.14;100.00;101911.31;6188266;23;20031;-86
2023/01/05 08:53:29;;;;;;;35.10;4.37;;;;;;;9.17;100.00;101916.22;6202403;22;20260;-85
2023/01/05 08:55:55;;;;;;;37.70;4.07;;;;;;;9.10;100.00;101902.13;6208222;23;20004;-84
2023/01/05 08:58:20;;;;;;;40.07;4.77;;;;;;;9.21;100.00;101917.44;6205018;23;19997;-85
2023/01/05 09:00:45;;;;;;;31.37;3.57;;;;;;;9.23;100.00;101904.66;6209509;23;19993;-85
2023/01/05 09:03:11;;;;;;;41.60;4.67;;;;;;;9.40;100.00;101950.34;6181375;23;20040;-85
2023/01/05 09:05:36;;;;;;;41.40;5.27;;;;;;;9.34;100.00;101945.91;6193188;23;20024;-86
2023/01/05 09:08:01;;;;;;;38.97;4.27;;;;;;;9.35;100.00;101947.53;6186632;23;20032;-86
2023/01/05 09:10:28;;;;;;;38.63;4.78;;;;;;;9.37;100.00;101958.00;6186174;23;20055;-84
2023/01/05 09:12:53;;;;;;;32.57;4.33;;;;;;;9.31;100.00;101953.56;6186344;23;20000;-86
2023/01/05 09:15:18;;;;;;;39.80;4.70;;;;;;;9.27;100.00;101953.16;6184786;23;20726;-85
2023/01/05 09:17:44;;;;;;;41.63;4.67;;;;;;;9.31;100.00;101961.59;6183870;23;20001;-85
2023/01/05 09:20:09;;;;;;;46.53;4.97;;;;;;;9.27;100.00;101957.72;6184671;23;20345;-85
2023/01/05 09:22:35;;;;;;;41.53;4.23;;;;;;;9.33;100.00;101968.34;6183668;23;20048;-85
2023/01/05 09:25:01;;;;;;;35.53;4.37;;;;;;;9.29;100.00;101960.97;6184983;23;20405;-85
2023/01/05 09:27:26;;;;;;;45.00;4.47;;;;;;;9.30;100.00;101951.91;6183081;23;20612;-85
2023/01/05 09:29:52;;;;;;;49.33;5.50;;;;;;;9.33;100.00;101964.81;6184823;23;20005;-86
2023/01/05 09:32:17;;;;;;;38.77;4.10;;;;;;;9.33;100.00;101951.44;6183632;23;20001;-85
2023/01/05 09:34:42;;;;;;;33.40;4.27;;;;;;;9.46;100.00;101980.75;6183378;23;20016;-86
2023/01/05 09:37:08;;;;;;;40.87;5.13;;;;;;;9.52;100.00;101979.84;6184058;23;20005;-86
2023/01/05 09:39:33;;;;;;;42.97;5.20;;;;;;;9.53;100.00;101989.53;6183321;23;20338;-86
2023/01/05 09:42:03;;;;;;;46.47;5.27;;;;;;;9.61;100.00;101996.44;6184422;23;20028;-87
2023/01/05 09:44:32;;;;;;;50.30;5.13;;;;;;;9.68;100.00;101997.19;6185585;23;20256;-89
2023/01/05 09:47:17;;;;;;;42.97;4.70;;;;;;;9.79;100.00;101995.63;6190148;23;20066;-89
2023/01/05 09:49:44;;;;;;;39.75;5.05;;;;;;;9.85;100.00;102002.78;6187815;23;20012;-89
2023/01/05 09:52:11;;;;;;;35.30;4.95;;;;;;;9.80;100.00;101991.09;6183754;23;20064;-89
2023/01/05 09:54:38;;;;;;;43.50;4.32;;;;;;;9.84;100.00;102003.81;6184472;23;20072;-89
2023/01/05 09:57:06;;;;;;;36.77;4.70;;;;;;;9.81;100.00;102003.44;6182501;23;20016;-88
2023/01/05 09:59:41;;;;;;;48.83;5.80;;;;;;;9.76;100.00;102001.44;6184518;23;20244;-89
2023/01/05 10:02:34;;;;;;;40.63;5.05;;;;;;;9.81;100.00;102001.59;6183775;23;20005;-88
2023/01/05 10:05:01;;;;;;;33.63;4.43;;;;;;;9.81;100.00;102004.25;6183777;23;20140;-88
2023/01/05 10:07:48;;;;;;;35.85;5.10;;;;;;;9.90;100.00;102020.00;6184235;23;20013;-87
2023/01/05 10:10:32;;;;;;;46.40;5.00;;;;;;;10.03;100.00;102011.00;6182788;23;20005;-87
2023/01/05 10:13:02;;;;;;;38.63;4.63;;;;;;;10.05;100.00;102001.69;6156235;23;20016;-86
2023/01/05 10:15:37;;;;;;;41.40;4.80;;;;;;;10.16;100.00;102016.19;6183115;23;20884;-86
2023/01/05 10:20:49;;;;;;;35.92;3.88;;;;;;;10.16;100.00;102016.19;6183375;22;20044;-87
2023/01/05 10:23:47;;;;;;;48.45;4.15;;;;;;;10.15;100.00;102017.22;6183175;23;20052;-86
2023/01/05 10:26:30;;;;;;;46.47;5.30;;;;;;;10.11;100.00;102016.06;6183114;23;20084;-87
2023/01/05 10:29:06;;;;;;;35.65;5.15;;;;;;;10.21;100.00;102027.06;6183596;23;20549;-87
2023/01/05 10:32:07;;;;;;;42.87;5.23;;;;;;;9.97;100.00;101992.09;6183271;23;20421;-87
2023/01/05 10:42:14;;;;;;;40.67;4.60;;;;;;;10.39;100.00;102028.91;6182545;23;20499;-87
2023/01/05 12:01:17;;;;;;;40.25;5.60;;;;;;;10.42;100.00;102020.41;6172227;22;20334;-86
2023/01/05 12:26:18;;;;;;;29.45;5.18;;;;;;;10.47;100.00;102010.88;6176685;22;20029;-90
2023/01/05 12:29:36;;;;;;;35.53;5.50;;;;;;;10.35;100.00;102011.63;6182093;23;20100;-93
2023/01/05 13:29:25;;;;;;;33.97;4.53;;;;;;;11.12;100.00;101983.25;6181785;23;20921;-88
2023/01/05 13:32:19;;;;;;;36.03;5.13;;;;;;;11.19;100.00;101992.00;6182551;23;20001;-88
2023/01/05 13:35:19;;;;;;;35.00;5.20;;;;;;;11.06;100.00;101978.81;6182688;23;20425;-88
2023/01/05 13:38:18;;;;;;;28.30;4.43;;;;;;;11.00;100.00;101980.56;6182091;23;20005;-87
2023/01/05 13:41:02;;;;;;;29.63;4.65;;;;;;;11.00;100.00;101999.34;6182861;23;20033;-88
2023/01/05 13:43:49;;;;;;;43.90;5.07;;;;;;;10.96;100.00;101998.16;6179950;23;20009;-87
2023/01/05 13:46:47;;;;;;;35.07;5.43;;;;;;;11.01;100.00;101998.28;6183921;23;20264;-88
2023/01/05 13:49:50;;;;;;;32.72;4.50;;;;;;;10.98;100.00;101985.34;6184147;23;20079;-89
2023/01/05 13:52:46;;;;;;;29.15;3.80;;;;;;;11.02;100.00;101999.91;6158280;23;20016;-89
2023/01/05 13:55:17;;;;;;;34.75;4.53;;;;;;;10.96;100.00;101981.25;6188516;23;20032;-89
2023/01/05 13:57:47;;;;;;;40.00;4.72;;;;;;;11.00;100.00;101982.44;6184407;23;20009;-88
2023/01/05 14:01:02;;;;;;;31.88;4.80;;;;;;;11.02;100.00;101993.75;6152573;23;20433;-90
2023/01/05 14:03:43;;;;;;;38.30;5.53;;;;;;;10.91;100.00;101993.50;6184473;23;20001;-88
2023/01/05 14:06:35;;;;;;;35.80;5.57;;;;;;;10.81;100.00;101990.56;6190315;23;20004;-89
2023/01/05 14:09:26;;;;;;;38.20;5.72;;;;;;;10.84;100.00;101989.28;6183244;23;20037;-88
2023/01/05 14:12:06;;;;;;;36.00;5.55;;;;;;;10.82;100.00;101988.69;6184614;23;20108;-89
2023/01/05 14:14:59;;;;;;;40.30;6.25;;;;;;;10.73;100.00;101980.19;6184308;23;20041;-89
2023/01/05 14:25:04;;;;;;;36.80;6.82;;;;;;;10.69;100.00;101992.41;6184312;23;20071;-88
2023/01/05 14:28:22;;;;;;;38.83;7.25;;;;;;;10.49;100.00;101941.78;6155977;23;20481;-87
2023/01/05 14:30:50;;;;;;;41.05;7.18;;;;;;;10.46;100.00;101953.78;6183179;22;20021;-88
2023/01/05 14:33:19;;;;;;;38.13;6.85;;;;;;;10.38;100.00;101949.59;6176869;23;20027;-88
2023/01/05 14:36:10;;;;;;;42.00;6.53;;;;;;;10.53;100.00;101975.13;6188069;23;20005;-86
2023/01/05 14:42:51;;;;;;;39.67;6.95;;;;;;;10.54;100.00;101993.66;6188591;23;20031;-88
2023/01/05 14:55:57;;;;;;;36.38;5.47;;;;;;;10.27;100.00;101995.84;6196156;22;20028;-88
2023/01/05 14:58:39;;;;;;;41.73;4.83;;;;;;;10.20;100.00;101992.47;6168785;23;20012;-89
2023/01/05 15:01:34;;;;;;;37.10;5.43;;;;;;;10.06;100.00;101989.94;6187718;23;20015;-89
2023/01/05 15:04:23;;;;;;;36.40;4.75;;;;;;;10.04;100.00;102001.94;6186342;23;20084;-89
2023/01/05 15:06:57;;;;;;;32.40;5.07;;;;;;;10.02;100.00;102009.38;6177441;23;20059;-89
2023/01/05 15:09:46;;;;;;;38.00;5.75;;;;;;;10.01;100.00;102008.56;6184480;23;20068;-89
2023/01/05 15:12:23;;;;;;;41.30;5.13;;;;;;;9.94;100.00;102002.47;6184413;23;20005;-90
2023/01/05 15:14:57;;;;;;;31.07;4.93;;;;;;;9.87;100.00;101988.31;6185070;23;20240;-89
2023/01/05 15:18:24;;;;;;;39.85;4.88;;;;;;;9.80;100.00;101991.91;6187732;23;20377;-89
2023/01/05 15:21:43;;;;;;;;;;;;;;;;;;;;;
2023/01/05 15:29:40;;;;;;;33.80;4.67;;;;;;;9.67;100.00;101992.88;6168601;22;20453;-87
2023/01/05 15:32:46;;;;;;;35.30;5.10;;;;;;;9.62;100.00;101984.69;6154421;23;20264;-88
2023/01/05 15:35:29;;;;;;;26.75;4.80;;;;;;;9.49;100.00;101966.13;6153852;23;20009;-88
2023/01/05 15:37:54;;;;;;;35.55;5.28;;;;;;;9.35;100.00;101957.41;6153368;23;20009;-88
2023/01/05 15:40:22;;;;;;;39.38;4.63;;;;;;;9.49;100.00;101976.81;6154194;23;20037;-90
2023/01/05 15:42:51;;;;;;;35.37;5.30;;;;;;;9.17;100.00;101945.66;6153754;23;20010;-88
2023/01/05 15:45:33;;;;;;;27.00;4.85;;;;;;;9.39;100.00;101977.31;6154039;23;20442;-87
2023/01/05 15:48:13;;;;;;;38.13;5.72;;;;;;;9.35;100.00;101968.94;6153623;23;20025;-87
2023/01/05 15:50:45;;;;;;;35.00;5.65;;;;;;;9.34;100.00;101966.47;6152981;23;20006;-86
2023/01/05 15:53:29;;;;;;;39.25;5.70;;;;;;;9.30;100.00;101967.97;6154241;23;20009;-86